sensor_id;sensor_type;location;lat;lon;timestamp;P1;durP1;ratioP1;P2;durP2;ratioP2
39264;SDS011;42646;51.910;7.724;2022-09-27T00:01:06;6.05;;;3.13;;
39264;SDS011;42646;51.910;7.724;2022-09-27T00:03:36;8.07;;;3.55;;
39264;SDS011;42646;51.910;7.724;2022-09-27T00:06:05;7.28;;;3.60;;
39264;SDS011;42646;51.910;7.724;2022-09-27T00:08:35;7.93;;;3.70;;
39264;SDS011;42646;51.910;7.724;2022-09-27T00:11:03;8.38;;;4.55;;
39264;SDS011;42646;51.910;7.724;2022-09-27T00:13:32;6.28;;;4.07;;
39264;SDS011;42646;51.910;7.724;2022-09-27T00:16:02;7.97;;;3.70;;
39264;SDS011;42646;51.910;7.724;2022-09-27T00:18:31;6.95;;;3.90;;
39264;SDS011;42646;51.910;7.724;2022-09-27T00:21:03;6.25;;;3.78;;
39264;SDS011;42646;51.910;7.724;2022-09-27T00:23:33;6.13;;;3.70;;
39264;SDS011;42646;51.910;7.724;2022-09-27T00:26:01;7.18;;;3.58;;
39264;SDS011;42646;51.910;7.724;2022-09-27T00:28:29;6.93;;;3.42;;
39264;SDS011;42646;51.910;7.724;2022-09-27T00:30:57;5.78;;;3.25;;
39264;SDS011;42646;51.910;7.724;2022-09-27T00:33:26;6.10;;;3.33;;
39264;SDS011;42646;51.910;7.724;2022-09-27T00:35:54;7.32;;;3.35;;
39264;SDS011;42646;51.910;7.724;2022-09-27T00:38:29;6.28;;;3.20;;
39264;SDS011;42646;51.910;7.724;2022-09-27T00:40:56;6.35;;;3.17;;
39264;SDS011;42646;51.910;7.724;2022-09-27T00:43:24;5.95;;;3.03;;
39264;SDS011;42646;51.910;7.724;2022-09-27T00:45:53;5.50;;;3.00;;
39264;SDS011;42646;51.910;7.724;2022-09-27T00:48:30;5.22;;;2.83;;
39264;SDS011;42646;51.910;7.724;2022-09-27T00:51:02;7.13;;;3.10;;
39264;SDS011;42646;51.910;7.724;2022-09-27T00:53:34;6.07;;;2.90;;
39264;SDS011;42646;51.910;7.724;2022-09-27T00:56:07;6.55;;;2.78;;
39264;SDS011;42646;51.910;7.724;2022-09-27T00:58:41;4.68;;;2.60;;
39264;SDS011;42646;51.910;7.724;2022-09-27T01:01:16;6.00;;;2.78;;
39264;SDS011;42646;51.910;7.724;2022-09-27T01:03:47;4.70;;;2.80;;
39264;SDS011;42646;51.910;7.724;2022-09-27T01:06:19;5.97;;;2.83;;
39264;SDS011;42646;51.910;7.724;2022-09-27T01:08:47;5.18;;;2.50;;
39264;SDS011;42646;51.910;7.724;2022-09-27T01:11:18;5.50;;;2.50;;
39264;SDS011;42646;51.910;7.724;2022-09-27T01:14:10;4.53;;;2.03;;
39264;SDS011;42646;51.910;7.724;2022-09-27T01:16:52;4.55;;;1.90;;
39264;SDS011;42646;51.910;7.724;2022-09-27T01:19:38;7.90;;;2.05;;
39264;SDS011;42646;51.910;7.724;2022-09-27T01:22:28;4.72;;;1.77;;
39264;SDS011;42646;51.910;7.724;2022-09-27T01:25:07;6.25;;;1.92;;
39264;SDS011;42646;51.910;7.724;2022-09-27T01:27:56;4.07;;;1.75;;
39264;SDS011;42646;51.910;7.724;2022-09-27T01:30:40;5.50;;;1.77;;
39264;SDS011;42646;51.910;7.724;2022-09-27T01:33:24;5.85;;;1.55;;
39264;SDS011;42646;51.910;7.724;2022-09-27T01:36:05;4.80;;;1.60;;
39264;SDS011;42646;51.910;7.724;2022-09-27T01:38:45;3.15;;;1.40;;
39264;SDS011;42646;51.910;7.724;2022-09-27T01:41:25;4.10;;;1.60;;
39264;SDS011;42646;51.910;7.724;2022-09-27T01:44:18;4.65;;;1.38;;
39264;SDS011;42646;51.910;7.724;2022-09-27T01:49:41;3.60;;;1.50;;
39264;SDS011;42646;51.910;7.724;2022-09-27T01:52:18;4.35;;;1.33;;
39264;SDS011;42646;51.910;7.724;2022-09-27T01:54:49;6.55;;;1.70;;
39264;SDS011;42646;51.910;7.724;2022-09-27T01:57:30;4.88;;;1.50;;
39264;SDS011;42646;51.910;7.724;2022-09-27T02:00:05;3.78;;;1.30;;
39264;SDS011;42646;51.910;7.724;2022-09-27T02:02:43;5.38;;;1.67;;
39264;SDS011;42646;51.910;7.724;2022-09-27T02:05:28;3.20;;;1.45;;
39264;SDS011;42646;51.910;7.724;2022-09-27T02:08:06;4.25;;;1.50;;
39264;SDS011;42646;51.910;7.724;2022-09-27T02:10:42;4.80;;;1.63;;
39264;SDS011;42646;51.910;7.724;2022-09-27T02:13:16;6.00;;;1.88;;
39264;SDS011;42646;51.910;7.724;2022-09-27T02:15:51;4.50;;;1.50;;
39264;SDS011;42646;51.910;7.724;2022-09-27T02:18:37;5.55;;;1.70;;
39264;SDS011;42646;51.910;7.724;2022-09-27T02:23:46;5.90;;;1.83;;
39264;SDS011;42646;51.910;7.724;2022-09-27T02:26:18;4.28;;;1.60;;
39264;SDS011;42646;51.910;7.724;2022-09-27T02:28:53;5.18;;;1.65;;
39264;SDS011;42646;51.910;7.724;2022-09-27T02:31:30;5.22;;;1.63;;
39264;SDS011;42646;51.910;7.724;2022-09-27T02:34:00;4.85;;;1.80;;
39264;SDS011;42646;51.910;7.724;2022-09-27T02:36:31;3.65;;;1.60;;
39264;SDS011;42646;51.910;7.724;2022-09-27T02:38:59;3.83;;;1.50;;
39264;SDS011;42646;51.910;7.724;2022-09-27T02:41:29;4.22;;;1.52;;
39264;SDS011;42646;51.910;7.724;2022-09-27T02:43:58;3.92;;;1.70;;
39264;SDS011;42646;51.910;7.724;2022-09-27T02:46:47;5.75;;;1.73;;
39264;SDS011;42646;51.910;7.724;2022-09-27T02:49:33;5.68;;;1.75;;
39264;SDS011;42646;51.910;7.724;2022-09-27T02:52:32;4.60;;;1.92;;
39264;SDS011;42646;51.910;7.724;2022-09-27T02:55:12;3.30;;;1.73;;
39264;SDS011;42646;51.910;7.724;2022-09-27T02:57:56;3.25;;;1.50;;
39264;SDS011;42646;51.910;7.724;2022-09-27T03:00:53;3.22;;;1.70;;
39264;SDS011;42646;51.910;7.724;2022-09-27T03:04:01;3.97;;;1.80;;
39264;SDS011;42646;51.910;7.724;2022-09-27T03:06:35;4.28;;;1.85;;
39264;SDS011;42646;51.910;7.724;2022-09-27T03:09:04;3.33;;;1.70;;
39264;SDS011;42646;51.910;7.724;2022-09-27T03:11:41;4.35;;;1.70;;
39264;SDS011;42646;51.910;7.724;2022-09-27T03:14:08;5.85;;;1.60;;
39264;SDS011;42646;51.910;7.724;2022-09-27T03:16:43;3.25;;;1.27;;
39264;SDS011;42646;51.910;7.724;2022-09-27T03:19:33;3.35;;;1.40;;
39264;SDS011;42646;51.910;7.724;2022-09-27T03:22:21;3.03;;;1.20;;
39264;SDS011;42646;51.910;7.724;2022-09-27T03:24:48;2.33;;;1.20;;
39264;SDS011;42646;51.910;7.724;2022-09-27T03:27:16;3.80;;;1.30;;
39264;SDS011;42646;51.910;7.724;2022-09-27T03:29:44;2.92;;;1.30;;
39264;SDS011;42646;51.910;7.724;2022-09-27T03:32:11;3.45;;;1.23;;
39264;SDS011;42646;51.910;7.724;2022-09-27T03:34:58;2.53;;;1.17;;
39264;SDS011;42646;51.910;7.724;2022-09-27T03:37:27;3.08;;;1.30;;
39264;SDS011;42646;51.910;7.724;2022-09-27T03:39:55;3.97;;;1.40;;
39264;SDS011;42646;51.910;7.724;2022-09-27T03:42:22;4.28;;;1.50;;
39264;SDS011;42646;51.910;7.724;2022-09-27T03:44:51;2.72;;;1.30;;
39264;SDS011;42646;51.910;7.724;2022-09-27T03:47:19;2.95;;;1.27;;
39264;SDS011;42646;51.910;7.724;2022-09-27T03:49:47;2.53;;;1.20;;
39264;SDS011;42646;51.910;7.724;2022-09-27T03:52:15;3.28;;;1.20;;
39264;SDS011;42646;51.910;7.724;2022-09-27T03:54:45;3.10;;;1.15;;
39264;SDS011;42646;51.910;7.724;2022-09-27T03:57:13;2.63;;;1.33;;
39264;SDS011;42646;51.910;7.724;2022-09-27T03:59:41;3.38;;;1.33;;
39264;SDS011;42646;51.910;7.724;2022-09-27T04:02:31;2.42;;;1.30;;
39264;SDS011;42646;51.910;7.724;2022-09-27T04:05:34;3.40;;;1.42;;
39264;SDS011;42646;51.910;7.724;2022-09-27T04:08:05;2.10;;;1.27;;
39264;SDS011;42646;51.910;7.724;2022-09-27T04:10:35;3.42;;;1.33;;
39264;SDS011;42646;51.910;7.724;2022-09-27T04:13:02;2.90;;;1.65;;
39264;SDS011;42646;51.910;7.724;2022-09-27T04:15:37;3.42;;;1.90;;
39264;SDS011;42646;51.910;7.724;2022-09-27T04:18:37;3.75;;;1.80;;
39264;SDS011;42646;51.910;7.724;2022-09-27T04:21:28;4.18;;;1.95;;
39264;SDS011;42646;51.910;7.724;2022-09-27T04:23:56;5.10;;;2.38;;
39264;SDS011;42646;51.910;7.724;2022-09-27T04:26:25;3.70;;;2.33;;
39264;SDS011;42646;51.910;7.724;2022-09-27T04:29:01;4.70;;;2.13;;
39264;SDS011;42646;51.910;7.724;2022-09-27T04:31:31;5.63;;;2.25;;
39264;SDS011;42646;51.910;7.724;2022-09-27T04:34:22;4.90;;;2.22;;
39264;SDS011;42646;51.910;7.724;2022-09-27T04:37:12;4.88;;;2.58;;
39264;SDS011;42646;51.910;7.724;2022-09-27T04:39:43;4.93;;;2.00;;
39264;SDS011;42646;51.910;7.724;2022-09-27T04:42:13;3.78;;;2.15;;
39264;SDS011;42646;51.910;7.724;2022-09-27T04:44:40;3.83;;;1.90;;
39264;SDS011;42646;51.910;7.724;2022-09-27T04:47:08;4.75;;;1.90;;
39264;SDS011;42646;51.910;7.724;2022-09-27T04:49:36;3.15;;;1.60;;
39264;SDS011;42646;51.910;7.724;2022-09-27T04:52:04;4.55;;;1.80;;
39264;SDS011;42646;51.910;7.724;2022-09-27T04:54:33;5.32;;;1.70;;
39264;SDS011;42646;51.910;7.724;2022-09-27T04:57:10;4.30;;;1.70;;
39264;SDS011;42646;51.910;7.724;2022-09-27T04:59:42;3.25;;;1.60;;
39264;SDS011;42646;51.910;7.724;2022-09-27T05:02:11;5.82;;;1.88;;
39264;SDS011;42646;51.910;7.724;2022-09-27T05:05:08;3.47;;;1.67;;
39264;SDS011;42646;51.910;7.724;2022-09-27T05:07:39;3.63;;;1.60;;
39264;SDS011;42646;51.910;7.724;2022-09-27T05:10:12;3.03;;;1.63;;
39264;SDS011;42646;51.910;7.724;2022-09-27T05:12:40;4.75;;;1.70;;
39264;SDS011;42646;51.910;7.724;2022-09-27T05:15:15;7.68;;;2.13;;
39264;SDS011;42646;51.910;7.724;2022-09-27T05:18:15;5.13;;;1.85;;
39264;SDS011;42646;51.910;7.724;2022-09-27T05:21:15;4.68;;;1.73;;
39264;SDS011;42646;51.910;7.724;2022-09-27T05:23:45;4.57;;;1.65;;
39264;SDS011;42646;51.910;7.724;2022-09-27T05:26:13;3.00;;;1.63;;
39264;SDS011;42646;51.910;7.724;2022-09-27T05:28:41;4.47;;;1.90;;
39264;SDS011;42646;51.910;7.724;2022-09-27T05:31:10;4.63;;;2.25;;
39264;SDS011;42646;51.910;7.724;2022-09-27T05:33:40;3.90;;;2.03;;
39264;SDS011;42646;51.910;7.724;2022-09-27T05:39:00;5.88;;;2.70;;
39264;SDS011;42646;51.910;7.724;2022-09-27T05:41:28;6.95;;;2.70;;
39264;SDS011;42646;51.910;7.724;2022-09-27T05:43:58;6.13;;;2.70;;
39264;SDS011;42646;51.910;7.724;2022-09-27T05:46:27;5.50;;;2.90;;
39264;SDS011;42646;51.910;7.724;2022-09-27T05:48:55;5.35;;;2.90;;
39264;SDS011;42646;51.910;7.724;2022-09-27T05:51:23;5.22;;;3.05;;
39264;SDS011;42646;51.910;7.724;2022-09-27T05:53:51;4.57;;;3.08;;
39264;SDS011;42646;51.910;7.724;2022-09-27T05:56:25;5.35;;;2.75;;
39264;SDS011;42646;51.910;7.724;2022-09-27T05:59:15;5.45;;;3.00;;
39264;SDS011;42646;51.910;7.724;2022-09-27T06:02:09;4.18;;;2.90;;
39264;SDS011;42646;51.910;7.724;2022-09-27T06:05:00;5.70;;;3.40;;
39264;SDS011;42646;51.910;7.724;2022-09-27T06:07:46;4.72;;;3.30;;
39264;SDS011;42646;51.910;7.724;2022-09-27T06:10:21;6.30;;;3.67;;
39264;SDS011;42646;51.910;7.724;2022-09-27T06:12:49;6.97;;;3.42;;
39264;SDS011;42646;51.910;7.724;2022-09-27T06:15:31;7.30;;;3.87;;
39264;SDS011;42646;51.910;7.724;2022-09-27T06:18:06;6.10;;;3.50;;
39264;SDS011;42646;51.910;7.724;2022-09-27T06:20:35;4.70;;;3.10;;
39264;SDS011;42646;51.910;7.724;2022-09-27T06:23:04;5.45;;;3.40;;
39264;SDS011;42646;51.910;7.724;2022-09-27T06:25:35;6.28;;;3.40;;
39264;SDS011;42646;51.910;7.724;2022-09-27T06:28:13;5.05;;;3.33;;
39264;SDS011;42646;51.910;7.724;2022-09-27T06:30:43;5.00;;;3.42;;
39264;SDS011;42646;51.910;7.724;2022-09-27T06:33:34;7.35;;;3.17;;
39264;SDS011;42646;51.910;7.724;2022-09-27T06:36:02;7.75;;;3.30;;
39264;SDS011;42646;51.910;7.724;2022-09-27T06:38:34;4.80;;;3.10;;
39264;SDS011;42646;51.910;7.724;2022-09-27T06:41:15;6.47;;;3.80;;
39264;SDS011;42646;51.910;7.724;2022-09-27T06:43:59;6.78;;;4.13;;
39264;SDS011;42646;51.910;7.724;2022-09-27T06:47:06;5.28;;;3.60;;
39264;SDS011;42646;51.910;7.724;2022-09-27T06:50:05;8.73;;;3.75;;
39264;SDS011;42646;51.910;7.724;2022-09-27T06:52:33;7.70;;;3.80;;
39264;SDS011;42646;51.910;7.724;2022-09-27T06:55:02;7.07;;;3.95;;
39264;SDS011;42646;51.910;7.724;2022-09-27T06:57:32;7.55;;;4.07;;
39264;SDS011;42646;51.910;7.724;2022-09-27T07:00:17;7.57;;;4.00;;
39264;SDS011;42646;51.910;7.724;2022-09-27T07:07:00;6.68;;;4.00;;
39264;SDS011;42646;51.910;7.724;2022-09-27T07:09:33;6.18;;;3.75;;
39264;SDS011;42646;51.910;7.724;2022-09-27T07:12:04;7.55;;;3.75;;
39264;SDS011;42646;51.910;7.724;2022-09-27T07:14:31;7.47;;;3.70;;
39264;SDS011;42646;51.910;7.724;2022-09-27T07:17:01;7.82;;;3.60;;
39264;SDS011;42646;51.910;7.724;2022-09-27T07:19:36;7.50;;;3.65;;
39264;SDS011;42646;51.910;7.724;2022-09-27T07:22:06;7.22;;;3.30;;
39264;SDS011;42646;51.910;7.724;2022-09-27T07:24:35;6.35;;;3.10;;
39264;SDS011;42646;51.910;7.724;2022-09-27T07:27:03;9.70;;;3.78;;
39264;SDS011;42646;51.910;7.724;2022-09-27T07:29:32;8.10;;;3.28;;
39264;SDS011;42646;51.910;7.724;2022-09-27T07:32:00;5.80;;;3.08;;
39264;SDS011;42646;51.910;7.724;2022-09-27T07:34:27;5.70;;;3.20;;
39264;SDS011;42646;51.910;7.724;2022-09-27T07:36:57;6.00;;;3.10;;
39264;SDS011;42646;51.910;7.724;2022-09-27T07:39:27;9.95;;;2.75;;
39264;SDS011;42646;51.910;7.724;2022-09-27T07:41:55;5.95;;;3.00;;
39264;SDS011;42646;51.910;7.724;2022-09-27T07:44:23;5.95;;;2.60;;
39264;SDS011;42646;51.910;7.724;2022-09-27T07:47:15;7.20;;;2.78;;
39264;SDS011;42646;51.910;7.724;2022-09-27T07:50:05;4.85;;;2.65;;
39264;SDS011;42646;51.910;7.724;2022-09-27T07:52:46;6.40;;;2.65;;
39264;SDS011;42646;51.910;7.724;2022-09-27T07:55:48;6.85;;;2.30;;
39264;SDS011;42646;51.910;7.724;2022-09-27T07:58:20;5.43;;;2.40;;
39264;SDS011;42646;51.910;7.724;2022-09-27T08:00:51;5.80;;;2.08;;
39264;SDS011;42646;51.910;7.724;2022-09-27T08:03:20;6.60;;;2.28;;
39264;SDS011;42646;51.910;7.724;2022-09-27T08:05:48;5.93;;;2.13;;
39264;SDS011;42646;51.910;7.724;2022-09-27T08:08:15;3.80;;;1.80;;
39264;SDS011;42646;51.910;7.724;2022-09-27T08:10:47;8.35;;;2.00;;
39264;SDS011;42646;51.910;7.724;2022-09-27T08:13:15;6.38;;;1.90;;
39264;SDS011;42646;51.910;7.724;2022-09-27T08:15:46;4.07;;;1.75;;
39264;SDS011;42646;51.910;7.724;2022-09-27T08:18:15;6.22;;;1.75;;
39264;SDS011;42646;51.910;7.724;2022-09-27T08:20:52;6.15;;;1.88;;
39264;SDS011;42646;51.910;7.724;2022-09-27T08:23:41;6.15;;;1.67;;
39264;SDS011;42646;51.910;7.724;2022-09-27T08:26:23;4.47;;;1.65;;
39264;SDS011;42646;51.910;7.724;2022-09-27T08:29:09;4.00;;;1.52;;
39264;SDS011;42646;51.910;7.724;2022-09-27T08:31:42;5.20;;;2.25;;
39264;SDS011;42646;51.910;7.724;2022-09-27T08:34:10;4.68;;;1.73;;
39264;SDS011;42646;51.910;7.724;2022-09-27T08:36:37;3.72;;;1.40;;
39264;SDS011;42646;51.910;7.724;2022-09-27T08:39:05;4.95;;;1.75;;
39264;SDS011;42646;51.910;7.724;2022-09-27T08:41:43;4.90;;;1.42;;
39264;SDS011;42646;51.910;7.724;2022-09-27T08:44:18;5.63;;;1.77;;
39264;SDS011;42646;51.910;7.724;2022-09-27T08:47:14;4.47;;;1.40;;
39264;SDS011;42646;51.910;7.724;2022-09-27T08:49:46;12.07;;;2.75;;
39264;SDS011;42646;51.910;7.724;2022-09-27T08:52:19;3.47;;;1.30;;
39264;SDS011;42646;51.910;7.724;2022-09-27T08:54:49;5.20;;;1.80;;
39264;SDS011;42646;51.910;7.724;2022-09-27T08:57:19;7.35;;;1.60;;
39264;SDS011;42646;51.910;7.724;2022-09-27T09:02:21;5.35;;;1.30;;
39264;SDS011;42646;51.910;7.724;2022-09-27T09:04:52;2.50;;;1.30;;
39264;SDS011;42646;51.910;7.724;2022-09-27T09:07:32;2.97;;;1.27;;
39264;SDS011;42646;51.910;7.724;2022-09-27T09:10:18;3.88;;;1.40;;
39264;SDS011;42646;51.910;7.724;2022-09-27T09:13:21;7.13;;;1.52;;
39264;SDS011;42646;51.910;7.724;2022-09-27T09:16:07;2.63;;;1.20;;
39264;SDS011;42646;51.910;7.724;2022-09-27T09:18:52;4.57;;;1.20;;
39264;SDS011;42646;51.910;7.724;2022-09-27T09:21:56;4.82;;;1.30;;
39264;SDS011;42646;51.910;7.724;2022-09-27T09:24:36;3.25;;;1.20;;
39264;SDS011;42646;51.910;7.724;2022-09-27T09:27:15;5.25;;;1.50;;
39264;SDS011;42646;51.910;7.724;2022-09-27T09:30:08;2.63;;;1.25;;
39264;SDS011;42646;51.910;7.724;2022-09-27T09:32:52;3.20;;;1.17;;
39264;SDS011;42646;51.910;7.724;2022-09-27T09:35:34;3.78;;;1.35;;
39264;SDS011;42646;51.910;7.724;2022-09-27T09:38:08;3.72;;;1.30;;
39264;SDS011;42646;51.910;7.724;2022-09-27T09:40:40;2.83;;;1.30;;
39264;SDS011;42646;51.910;7.724;2022-09-27T09:43:14;3.72;;;1.20;;
39264;SDS011;42646;51.910;7.724;2022-09-27T09:45:48;2.85;;;1.10;;
39264;SDS011;42646;51.910;7.724;2022-09-27T09:48:23;4.18;;;1.25;;
39264;SDS011;42646;51.910;7.724;2022-09-27T09:50:59;2.78;;;1.25;;
39264;SDS011;42646;51.910;7.724;2022-09-27T09:53:36;3.10;;;1.58;;
39264;SDS011;42646;51.910;7.724;2022-09-27T09:56:11;2.35;;;1.13;;
39264;SDS011;42646;51.910;7.724;2022-09-27T09:58:45;2.08;;;1.27;;
39264;SDS011;42646;51.910;7.724;2022-09-27T10:01:24;2.45;;;1.30;;
39264;SDS011;42646;51.910;7.724;2022-09-27T10:03:54;3.15;;;1.42;;
39264;SDS011;42646;51.910;7.724;2022-09-27T10:06:23;3.67;;;1.40;;
39264;SDS011;42646;51.910;7.724;2022-09-27T10:08:53;3.17;;;1.20;;
39264;SDS011;42646;51.910;7.724;2022-09-27T10:11:39;3.90;;;1.48;;
39264;SDS011;42646;51.910;7.724;2022-09-27T10:14:12;2.80;;;1.20;;
39264;SDS011;42646;51.910;7.724;2022-09-27T10:16:45;3.70;;;1.35;;
39264;SDS011;42646;51.910;7.724;2022-09-27T10:19:16;3.22;;;1.20;;
39264;SDS011;42646;51.910;7.724;2022-09-27T10:21:48;2.33;;;1.10;;
39264;SDS011;42646;51.910;7.724;2022-09-27T10:24:18;4.45;;;1.45;;
39264;SDS011;42646;51.910;7.724;2022-09-27T10:27:01;2.47;;;1.20;;
39264;SDS011;42646;51.910;7.724;2022-09-27T10:29:34;5.18;;;1.20;;
39264;SDS011;42646;51.910;7.724;2022-09-27T10:32:20;4.90;;;1.40;;
39264;SDS011;42646;51.910;7.724;2022-09-27T10:35:19;3.38;;;1.15;;
39264;SDS011;42646;51.910;7.724;2022-09-27T10:38:22;2.97;;;1.23;;
39264;SDS011;42646;51.910;7.724;2022-09-27T10:41:14;2.28;;;1.05;;
39264;SDS011;42646;51.910;7.724;2022-09-27T10:43:44;3.40;;;1.13;;
39264;SDS011;42646;51.910;7.724;2022-09-27T10:46:28;2.30;;;1.17;;
39264;SDS011;42646;51.910;7.724;2022-09-27T10:49:17;3.70;;;1.30;;
39264;SDS011;42646;51.910;7.724;2022-09-27T10:51:51;3.03;;;1.30;;
39264;SDS011;42646;51.910;7.724;2022-09-27T10:54:21;2.25;;;1.10;;
39264;SDS011;42646;51.910;7.724;2022-09-27T10:56:54;2.30;;;1.10;;
39264;SDS011;42646;51.910;7.724;2022-09-27T10:59:24;2.88;;;1.45;;
39264;SDS011;42646;51.910;7.724;2022-09-27T11:01:55;4.13;;;1.10;;
39264;SDS011;42646;51.910;7.724;2022-09-27T11:04:35;3.38;;;1.00;;
39264;SDS011;42646;51.910;7.724;2022-09-27T11:07:11;2.05;;;1.27;;
39264;SDS011;42646;51.910;7.724;2022-09-27T11:09:49;3.47;;;1.40;;
39264;SDS011;42646;51.910;7.724;2022-09-27T11:12:21;4.05;;;1.42;;
39264;SDS011;42646;51.910;7.724;2022-09-27T11:14:52;3.20;;;1.58;;
39264;SDS011;42646;51.910;7.724;2022-09-27T11:20:05;2.60;;;1.52;;
39264;SDS011;42646;51.910;7.724;2022-09-27T11:25:42;3.60;;;1.50;;
39264;SDS011;42646;51.910;7.724;2022-09-27T11:28:24;2.63;;;1.33;;
39264;SDS011;42646;51.910;7.724;2022-09-27T11:31:07;2.47;;;1.27;;
39264;SDS011;42646;51.910;7.724;2022-09-27T11:33:57;2.85;;;1.20;;
39264;SDS011;42646;51.910;7.724;2022-09-27T11:36:46;2.22;;;1.30;;
39264;SDS011;42646;51.910;7.724;2022-09-27T11:39:32;2.20;;;1.20;;
39264;SDS011;42646;51.910;7.724;2022-09-27T11:42:11;3.08;;;1.20;;
39264;SDS011;42646;51.910;7.724;2022-09-27T11:44:52;4.30;;;1.52;;
39264;SDS011;42646;51.910;7.724;2022-09-27T11:47:50;2.88;;;1.33;;
39264;SDS011;42646;51.910;7.724;2022-09-27T11:50:43;2.35;;;1.20;;
39264;SDS011;42646;51.910;7.724;2022-09-27T11:53:33;4.63;;;1.52;;
39264;SDS011;42646;51.910;7.724;2022-09-27T11:56:16;2.28;;;1.30;;
39264;SDS011;42646;51.910;7.724;2022-09-27T11:58:58;2.60;;;1.10;;
39264;SDS011;42646;51.910;7.724;2022-09-27T12:01:37;2.85;;;1.23;;
39264;SDS011;42646;51.910;7.724;2022-09-27T12:04:19;3.33;;;1.30;;
39264;SDS011;42646;51.910;7.724;2022-09-27T12:07:08;3.72;;;1.33;;
39264;SDS011;42646;51.910;7.724;2022-09-27T12:09:48;2.25;;;1.20;;
39264;SDS011;42646;51.910;7.724;2022-09-27T12:12:20;3.83;;;1.30;;
39264;SDS011;42646;51.910;7.724;2022-09-27T12:14:51;2.10;;;1.10;;
39264;SDS011;42646;51.910;7.724;2022-09-27T12:17:23;3.83;;;1.38;;
39264;SDS011;42646;51.910;7.724;2022-09-27T12:19:56;1.73;;;1.00;;
39264;SDS011;42646;51.910;7.724;2022-09-27T12:22:47;2.45;;;0.98;;
39264;SDS011;42646;51.910;7.724;2022-09-27T12:25:38;3.15;;;1.20;;
39264;SDS011;42646;51.910;7.724;2022-09-27T12:28:17;2.30;;;1.10;;
39264;SDS011;42646;51.910;7.724;2022-09-27T12:30:55;2.35;;;1.10;;
39264;SDS011;42646;51.910;7.724;2022-09-27T12:33:52;1.70;;;1.08;;
39264;SDS011;42646;51.910;7.724;2022-09-27T12:36:28;1.33;;;0.98;;
39264;SDS011;42646;51.910;7.724;2022-09-27T12:39:05;1.35;;;1.00;;
39264;SDS011;42646;51.910;7.724;2022-09-27T12:41:43;2.83;;;1.10;;
39264;SDS011;42646;51.910;7.724;2022-09-27T12:44:27;2.20;;;1.00;;
39264;SDS011;42646;51.910;7.724;2022-09-27T12:47:02;1.52;;;0.90;;
39264;SDS011;42646;51.910;7.724;2022-09-27T12:49:37;1.75;;;0.80;;
39264;SDS011;42646;51.910;7.724;2022-09-27T12:52:14;3.42;;;0.90;;
39264;SDS011;42646;51.910;7.724;2022-09-27T12:54:59;2.15;;;0.95;;
39264;SDS011;42646;51.910;7.724;2022-09-27T12:57:38;1.27;;;0.85;;
39264;SDS011;42646;51.910;7.724;2022-09-27T13:00:17;1.50;;;1.13;;
39264;SDS011;42646;51.910;7.724;2022-09-27T13:02:58;3.05;;;1.13;;
39264;SDS011;42646;51.910;7.724;2022-09-27T13:06:09;1.85;;;1.20;;
39264;SDS011;42646;51.910;7.724;2022-09-27T13:12:00;2.15;;;1.20;;
39264;SDS011;42646;51.910;7.724;2022-09-27T13:14:39;2.15;;;1.10;;
39264;SDS011;42646;51.910;7.724;2022-09-27T13:20:38;1.88;;;1.10;;
39264;SDS011;42646;51.910;7.724;2022-09-27T13:26:46;2.58;;;1.20;;
39264;SDS011;42646;51.910;7.724;2022-09-27T13:29:29;2.60;;;1.50;;
39264;SDS011;42646;51.910;7.724;2022-09-27T13:32:14;2.95;;;1.50;;
39264;SDS011;42646;51.910;7.724;2022-09-27T13:35:17;3.05;;;1.55;;
39264;SDS011;42646;51.910;7.724;2022-09-27T13:37:53;3.67;;;1.30;;
39264;SDS011;42646;51.910;7.724;2022-09-27T13:40:31;3.08;;;1.42;;
39264;SDS011;42646;51.910;7.724;2022-09-27T13:46:43;3.38;;;1.52;;
39264;SDS011;42646;51.910;7.724;2022-09-27T13:49:22;4.47;;;1.88;;
39264;SDS011;42646;51.910;7.724;2022-09-27T13:54:50;5.95;;;1.70;;
39264;SDS011;42646;51.910;7.724;2022-09-27T13:57:40;3.00;;;1.50;;
39264;SDS011;42646;51.910;7.724;2022-09-27T14:00:15;3.00;;;1.58;;
39264;SDS011;42646;51.910;7.724;2022-09-27T14:02:57;3.90;;;1.52;;
39264;SDS011;42646;51.910;7.724;2022-09-27T14:05:31;2.35;;;1.20;;
39264;SDS011;42646;51.910;7.724;2022-09-27T14:08:04;2.63;;;1.38;;
39264;SDS011;42646;51.910;7.724;2022-09-27T14:10:33;2.55;;;1.30;;
39264;SDS011;42646;51.910;7.724;2022-09-27T14:13:03;2.42;;;1.42;;
39264;SDS011;42646;51.910;7.724;2022-09-27T14:15:42;3.47;;;1.30;;
39264;SDS011;42646;51.910;7.724;2022-09-27T14:18:11;2.65;;;1.48;;
39264;SDS011;42646;51.910;7.724;2022-09-27T14:20:42;3.15;;;1.40;;
39264;SDS011;42646;51.910;7.724;2022-09-27T14:23:34;3.38;;;1.50;;
39264;SDS011;42646;51.910;7.724;2022-09-27T14:26:03;2.55;;;1.30;;
39264;SDS011;42646;51.910;7.724;2022-09-27T14:28:38;3.03;;;1.35;;
39264;SDS011;42646;51.910;7.724;2022-09-27T14:31:36;2.72;;;1.30;;
39264;SDS011;42646;51.910;7.724;2022-09-27T14:34:04;3.40;;;1.17;;
39264;SDS011;42646;51.910;7.724;2022-09-27T14:36:36;2.33;;;1.10;;
39264;SDS011;42646;51.910;7.724;2022-09-27T14:39:27;2.72;;;1.10;;
39264;SDS011;42646;51.910;7.724;2022-09-27T14:41:57;2.08;;;1.10;;
39264;SDS011;42646;51.910;7.724;2022-09-27T14:44:26;1.85;;;1.10;;
39264;SDS011;42646;51.910;7.724;2022-09-27T14:49:47;3.33;;;1.20;;
39264;SDS011;42646;51.910;7.724;2022-09-27T14:54:54;3.10;;;1.10;;
39264;SDS011;42646;51.910;7.724;2022-09-27T14:57:24;1.63;;;1.00;;
39264;SDS011;42646;51.910;7.724;2022-09-27T14:59:53;2.72;;;1.20;;
39264;SDS011;42646;51.910;7.724;2022-09-27T15:02:22;2.05;;;1.00;;
39264;SDS011;42646;51.910;7.724;2022-09-27T15:04:52;2.40;;;1.02;;
39264;SDS011;42646;51.910;7.724;2022-09-27T15:07:22;2.40;;;1.02;;
39264;SDS011;42646;51.910;7.724;2022-09-27T15:09:50;1.52;;;0.93;;
39264;SDS011;42646;51.910;7.724;2022-09-27T15:12:21;2.10;;;1.08;;
39264;SDS011;42646;51.910;7.724;2022-09-27T15:14:52;2.13;;;1.00;;
39264;SDS011;42646;51.910;7.724;2022-09-27T15:17:23;2.80;;;1.10;;
39264;SDS011;42646;51.910;7.724;2022-09-27T15:19:55;1.88;;;0.95;;
39264;SDS011;42646;51.910;7.724;2022-09-27T15:22:41;2.80;;;1.00;;
39264;SDS011;42646;51.910;7.724;2022-09-27T15:25:17;1.70;;;0.90;;
39264;SDS011;42646;51.910;7.724;2022-09-27T15:28:00;2.08;;;1.00;;
39264;SDS011;42646;51.910;7.724;2022-09-27T15:30:34;2.05;;;1.10;;
39264;SDS011;42646;51.910;7.724;2022-09-27T15:33:03;3.63;;;1.10;;
39264;SDS011;42646;51.910;7.724;2022-09-27T15:35:34;2.38;;;1.30;;
39264;SDS011;42646;51.910;7.724;2022-09-27T15:38:19;2.03;;;1.00;;
39264;SDS011;42646;51.910;7.724;2022-09-27T15:43:37;2.70;;;1.27;;
39264;SDS011;42646;51.910;7.724;2022-09-27T15:46:23;1.97;;;1.10;;
39264;SDS011;42646;51.910;7.724;2022-09-27T15:51:46;2.47;;;1.20;;
39264;SDS011;42646;51.910;7.724;2022-09-27T15:54:17;2.88;;;1.20;;
39264;SDS011;42646;51.910;7.724;2022-09-27T15:56:46;1.67;;;1.00;;
39264;SDS011;42646;51.910;7.724;2022-09-27T15:59:21;2.78;;;1.30;;
39264;SDS011;42646;51.910;7.724;2022-09-27T16:01:53;2.00;;;1.05;;
39264;SDS011;42646;51.910;7.724;2022-09-27T16:04:22;2.63;;;1.17;;
39264;SDS011;42646;51.910;7.724;2022-09-27T16:06:51;3.75;;;1.30;;
39264;SDS011;42646;51.910;7.724;2022-09-27T16:09:21;2.05;;;1.00;;
39264;SDS011;42646;51.910;7.724;2022-09-27T16:11:49;2.30;;;1.10;;
39264;SDS011;42646;51.910;7.724;2022-09-27T16:14:17;2.38;;;1.20;;
39264;SDS011;42646;51.910;7.724;2022-09-27T16:16:45;2.13;;;1.05;;
39264;SDS011;42646;51.910;7.724;2022-09-27T16:19:15;1.38;;;1.00;;
39264;SDS011;42646;51.910;7.724;2022-09-27T16:21:43;2.13;;;1.10;;
39264;SDS011;42646;51.910;7.724;2022-09-27T16:24:13;2.47;;;1.08;;
39264;SDS011;42646;51.910;7.724;2022-09-27T16:26:43;2.33;;;1.20;;
39264;SDS011;42646;51.910;7.724;2022-09-27T16:29:11;1.88;;;1.10;;
39264;SDS011;42646;51.910;7.724;2022-09-27T16:31:41;3.38;;;1.15;;